sensor_id;sensor_type;location;lat;lon;timestamp;temperature;humidity
4795;DHT22;2411;47.060;15.064;2023-06-22T00:00:16;17.90;27.00
4795;DHT22;2411;47.060;15.064;2023-06-22T00:02:43;17.90;24.00
4795;DHT22;2411;47.060;15.064;2023-06-22T00:05:10;18.00;24.00
4795;DHT22;2411;47.060;15.064;2023-06-22T00:07:37;17.90;30.00
4795;DHT22;2411;47.060;15.064;2023-06-22T00:10:05;17.90;22.90
4795;DHT22;2411;47.060;15.064;2023-06-22T00:12:32;17.70;26.90
4795;DHT22;2411;47.060;15.064;2023-06-22T00:14:59;17.60;33.00
4795;DHT22;2411;47.060;15.064;2023-06-22T00:17:27;17.70;28.80
4795;DHT22;2411;47.060;15.064;2023-06-22T00:19:54;17.70;28.40
4795;DHT22;2411;47.060;15.064;2023-06-22T00:22:23;17.70;27.20
4795;DHT22;2411;47.060;15.064;2023-06-22T00:24:56;17.60;34.30
4795;DHT22;2411;47.060;15.064;2023-06-22T00:27:24;17.60;36.10
4795;DHT22;2411;47.060;15.064;2023-06-22T00:29:51;17.50;38.90
4795;DHT22;2411;47.060;15.064;2023-06-22T00:32:19;17.40;50.00
4795;DHT22;2411;47.060;15.064;2023-06-22T00:34:46;17.30;57.40
4795;DHT22;2411;47.060;15.064;2023-06-22T00:37:13;17.10;77.50
4795;DHT22;2411;47.060;15.064;2023-06-22T00:39:40;17.10;97.30
4795;DHT22;2411;47.060;15.064;2023-06-22T00:42:08;16.90;99.90
4795;DHT22;2411;47.060;15.064;2023-06-22T00:44:36;16.90;99.90
4795;DHT22;2411;47.060;15.064;2023-06-22T00:47:03;17.00;95.00
4795;DHT22;2411;47.060;15.064;2023-06-22T00:49:31;17.00;93.90
4795;DHT22;2411;47.060;15.064;2023-06-22T00:51:58;17.00;95.20
4795;DHT22;2411;47.060;15.064;2023-06-22T00:54:26;17.00;92.80
4795;DHT22;2411;47.060;15.064;2023-06-22T00:56:55;17.00;83.30
4795;DHT22;2411;47.060;15.064;2023-06-22T00:59:26;17.00;81.50
4795;DHT22;2411;47.060;15.064;2023-06-22T01:01:54;17.00;85.60
4795;DHT22;2411;47.060;15.064;2023-06-22T01:04:25;17.10;75.20
4795;DHT22;2411;47.060;15.064;2023-06-22T01:07:26;17.10;68.20
4795;DHT22;2411;47.060;15.064;2023-06-22T01:10:21;17.10;67.50
4795;DHT22;2411;47.060;15.064;2023-06-22T01:13:07;17.10;60.20
4795;DHT22;2411;47.060;15.064;2023-06-22T01:15:43;17.00;56.50
4795;DHT22;2411;47.060;15.064;2023-06-22T01:18:13;17.10;53.20
4795;DHT22;2411;47.060;15.064;2023-06-22T01:20:41;17.00;59.90
4795;DHT22;2411;47.060;15.064;2023-06-22T01:29:12;16.60;81.40
4795;DHT22;2411;47.060;15.064;2023-06-22T01:31:41;16.50;82.30
4795;DHT22;2411;47.060;15.064;2023-06-22T01:34:10;16.50;82.00
4795;DHT22;2411;47.060;15.064;2023-06-22T01:36:39;16.50;90.40
4795;DHT22;2411;47.060;15.064;2023-06-22T01:39:07;16.60;90.40
4795;DHT22;2411;47.060;15.064;2023-06-22T01:41:37;16.60;82.10
4795;DHT22;2411;47.060;15.064;2023-06-22T01:44:08;16.50;85.10
4795;DHT22;2411;47.060;15.064;2023-06-22T01:46:37;16.50;67.70
4795;DHT22;2411;47.060;15.064;2023-06-22T01:49:05;16.50;64.20
4795;DHT22;2411;47.060;15.064;2023-06-22T01:51:33;16.50;68.20
4795;DHT22;2411;47.060;15.064;2023-06-22T01:54:01;16.60;59.20
4795;DHT22;2411;47.060;15.064;2023-06-22T01:56:29;16.60;53.00
4795;DHT22;2411;47.060;15.064;2023-06-22T01:59:03;16.60;67.50
4795;DHT22;2411;47.060;15.064;2023-06-22T02:02:16;16.50;69.70
4795;DHT22;2411;47.060;15.064;2023-06-22T02:04:28;16.50;79.20
4795;DHT22;2411;47.060;15.064;2023-06-22T02:07:00;16.50;81.70
4795;DHT22;2411;47.060;15.064;2023-06-22T02:09:31;16.40;90.10
4795;DHT22;2411;47.060;15.064;2023-06-22T02:12:02;16.40;95.80
4795;DHT22;2411;47.060;15.064;2023-06-22T02:14:31;16.30;84.90
4795;DHT22;2411;47.060;15.064;2023-06-22T02:16:59;16.20;91.70
4795;DHT22;2411;47.060;15.064;2023-06-22T02:19:27;16.30;92.60
4795;DHT22;2411;47.060;15.064;2023-06-22T02:21:54;16.30;91.10
4795;DHT22;2411;47.060;15.064;2023-06-22T02:24:22;16.30;93.60
4795;DHT22;2411;47.060;15.064;2023-06-22T02:26:50;16.10;99.90
4795;DHT22;2411;47.060;15.064;2023-06-22T02:29:18;16.10;99.90
4795;DHT22;2411;47.060;15.064;2023-06-22T02:31:45;16.10;99.90
4795;DHT22;2411;47.060;15.064;2023-06-22T02:34:13;16.20;99.90
4795;DHT22;2411;47.060;15.064;2023-06-22T02:36:49;16.20;99.90
4795;DHT22;2411;47.060;15.064;2023-06-22T02:39:23;16.30;99.90
4795;DHT22;2411;47.060;15.064;2023-06-22T02:41:52;16.30;99.90
4795;DHT22;2411;47.060;15.064;2023-06-22T02:44:20;16.20;99.90
4795;DHT22;2411;47.060;15.064;2023-06-22T02:46:48;16.10;99.90
4795;DHT22;2411;47.060;15.064;2023-06-22T02:49:15;16.00;99.90
4795;DHT22;2411;47.060;15.064;2023-06-22T02:51:45;16.00;99.90
4795;DHT22;2411;47.060;15.064;2023-06-22T02:54:13;16.00;99.90
4795;DHT22;2411;47.060;15.064;2023-06-22T02:56:40;16.00;99.90
4795;DHT22;2411;47.060;15.064;2023-06-22T02:59:11;16.00;99.90
4795;DHT22;2411;47.060;15.064;2023-06-22T03:01:38;16.00;99.90
4795;DHT22;2411;47.060;15.064;2023-06-22T03:04:10;16.00;99.90
4795;DHT22;2411;47.060;15.064;2023-06-22T03:06:38;16.10;99.90
4795;DHT22;2411;47.060;15.064;2023-06-22T03:09:08;16.10;99.90
4795;DHT22;2411;47.060;15.064;2023-06-22T03:11:35;16.00;99.90
4795;DHT22;2411;47.060;15.064;2023-06-22T03:14:02;15.90;99.90
4795;DHT22;2411;47.060;15.064;2023-06-22T03:16:30;16.00;99.90
4795;DHT22;2411;47.060;15.064;2023-06-22T03:18:57;16.00;99.90
4795;DHT22;2411;47.060;15.064;2023-06-22T03:21:28;16.00;99.90
4795;DHT22;2411;47.060;15.064;2023-06-22T03:23:56;15.90;99.90
4795;DHT22;2411;47.060;15.064;2023-06-22T03:26:23;15.80;99.90
4795;DHT22;2411;47.060;15.064;2023-06-22T03:28:54;15.80;99.90
4795;DHT22;2411;47.060;15.064;2023-06-22T03:31:22;15.80;99.90
4795;DHT22;2411;47.060;15.064;2023-06-22T03:33:50;15.90;99.90
4795;DHT22;2411;47.060;15.064;2023-06-22T03:36:18;16.00;99.90
4795;DHT22;2411;47.060;15.064;2023-06-22T03:38:50;16.10;99.90
4795;DHT22;2411;47.060;15.064;2023-06-22T03:41:17;16.10;99.90
4795;DHT22;2411;47.060;15.064;2023-06-22T03:43:46;16.20;99.90
4795;DHT22;2411;47.060;15.064;2023-06-22T03:46:13;16.10;99.90
4795;DHT22;2411;47.060;15.064;2023-06-22T03:48:41;16.10;99.90
4795;DHT22;2411;47.060;15.064;2023-06-22T03:51:08;16.10;99.90
4795;DHT22;2411;47.060;15.064;2023-06-22T03:53:35;16.10;99.90
4795;DHT22;2411;47.060;15.064;2023-06-22T03:56:03;16.10;99.90
4795;DHT22;2411;47.060;15.064;2023-06-22T03:58:30;16.10;99.90
4795;DHT22;2411;47.060;15.064;2023-06-22T04:01:00;16.20;99.90
4795;DHT22;2411;47.060;15.064;2023-06-22T04:03:27;16.30;99.90
4795;DHT22;2411;47.060;15.064;2023-06-22T04:05:55;16.40;99.90
4795;DHT22;2411;47.060;15.064;2023-06-22T04:08:22;16.50;99.90
4795;DHT22;2411;47.060;15.064;2023-06-22T04:10:49;16.60;99.90
4795;DHT22;2411;47.060;15.064;2023-06-22T04:13:16;16.70;99.90
4795;DHT22;2411;47.060;15.064;2023-06-22T04:15:44;16.80;99.90
4795;DHT22;2411;47.060;15.064;2023-06-22T04:18:11;16.90;94.30
4795;DHT22;2411;47.060;15.064;2023-06-22T04:20:40;17.00;94.40
4795;DHT22;2411;47.060;15.064;2023-06-22T04:23:09;17.10;74.60
4795;DHT22;2411;47.060;15.064;2023-06-22T04:25:36;17.30;71.00
4795;DHT22;2411;47.060;15.064;2023-06-22T04:28:04;17.40;59.70
4795;DHT22;2411;47.060;15.064;2023-06-22T04:30:33;17.50;60.20
4795;DHT22;2411;47.060;15.064;2023-06-22T04:33:00;17.60;70.90
4795;DHT22;2411;47.060;15.064;2023-06-22T04:35:28;17.60;72.70
4795;DHT22;2411;47.060;15.064;2023-06-22T04:37:58;17.80;67.60
4795;DHT22;2411;47.060;15.064;2023-06-22T04:40:25;17.90;60.80
4795;DHT22;2411;47.060;15.064;2023-06-22T04:42:53;18.00;64.20
4795;DHT22;2411;47.060;15.064;2023-06-22T04:45:21;18.00;67.20
4795;DHT22;2411;47.060;15.064;2023-06-22T04:47:49;18.10;70.30
4795;DHT22;2411;47.060;15.064;2023-06-22T04:50:16;18.20;60.70
4795;DHT22;2411;47.060;15.064;2023-06-22T04:52:45;18.30;53.30
4795;DHT22;2411;47.060;15.064;2023-06-22T04:55:14;18.30;48.40
4795;DHT22;2411;47.060;15.064;2023-06-22T04:57:48;18.40;37.20
4795;DHT22;2411;47.060;15.064;2023-06-22T05:00:19;18.40;34.80
4795;DHT22;2411;47.060;15.064;2023-06-22T05:02:46;18.50;33.20
4795;DHT22;2411;47.060;15.064;2023-06-22T05:05:15;18.60;32.10
4795;DHT22;2411;47.060;15.064;2023-06-22T05:07:43;18.90;32.40
4795;DHT22;2411;47.060;15.064;2023-06-22T05:10:11;19.00;28.70
4795;DHT22;2411;47.060;15.064;2023-06-22T05:12:42;19.10;25.70
4795;DHT22;2411;47.060;15.064;2023-06-22T05:15:10;19.40;27.60
4795;DHT22;2411;47.060;15.064;2023-06-22T05:17:37;19.50;29.10
4795;DHT22;2411;47.060;15.064;2023-06-22T05:20:11;19.70;32.30
4795;DHT22;2411;47.060;15.064;2023-06-22T05:22:39;19.70;32.70
4795;DHT22;2411;47.060;15.064;2023-06-22T05:25:09;19.80;32.60
4795;DHT22;2411;47.060;15.064;2023-06-22T05:27:37;19.90;31.10
4795;DHT22;2411;47.060;15.064;2023-06-22T05:30:07;19.90;30.90
4795;DHT22;2411;47.060;15.064;2023-06-22T05:32:36;20.00;28.60
4795;DHT22;2411;47.060;15.064;2023-06-22T05:35:04;20.00;27.10
4795;DHT22;2411;47.060;15.064;2023-06-22T05:37:32;20.20;28.00
4795;DHT22;2411;47.060;15.064;2023-06-22T05:39:59;20.30;28.20
4795;DHT22;2411;47.060;15.064;2023-06-22T05:42:26;20.40;29.30
4795;DHT22;2411;47.060;15.064;2023-06-22T05:44:54;20.50;28.70
4795;DHT22;2411;47.060;15.064;2023-06-22T05:47:21;20.70;27.70
4795;DHT22;2411;47.060;15.064;2023-06-22T05:49:50;20.80;26.50
4795;DHT22;2411;47.060;15.064;2023-06-22T05:52:17;20.80;26.30
4795;DHT22;2411;47.060;15.064;2023-06-22T05:54:44;21.00;27.60
4795;DHT22;2411;47.060;15.064;2023-06-22T05:57:12;21.10;27.10
4795;DHT22;2411;47.060;15.064;2023-06-22T05:59:39;21.10;27.50
4795;DHT22;2411;47.060;15.064;2023-06-22T06:02:06;21.20;26.20
4795;DHT22;2411;47.060;15.064;2023-06-22T06:04:34;21.30;26.60
4795;DHT22;2411;47.060;15.064;2023-06-22T06:07:01;21.40;26.80
4795;DHT22;2411;47.060;15.064;2023-06-22T06:09:29;21.50;26.10
4795;DHT22;2411;47.060;15.064;2023-06-22T06:11:56;21.60;25.70
4795;DHT22;2411;47.060;15.064;2023-06-22T06:14:24;21.60;23.60
4795;DHT22;2411;47.060;15.064;2023-06-22T06:16:51;21.60;23.10
4795;DHT22;2411;47.060;15.064;2023-06-22T06:19:18;21.60;22.80
4795;DHT22;2411;47.060;15.064;2023-06-22T06:21:46;21.80;23.50
4795;DHT22;2411;47.060;15.064;2023-06-22T06:24:13;21.90;24.60
4795;DHT22;2411;47.060;15.064;2023-06-22T06:26:40;22.10;25.00
4795;DHT22;2411;47.060;15.064;2023-06-22T06:29:09;22.30;25.90
4795;DHT22;2411;47.060;15.064;2023-06-22T06:31:37;22.40;25.60
4795;DHT22;2411;47.060;15.064;2023-06-22T06:34:04;22.20;23.50
4795;DHT22;2411;47.060;15.064;2023-06-22T06:36:31;22.10;22.60
4795;DHT22;2411;47.060;15.064;2023-06-22T06:38:59;22.20;23.30
4795;DHT22;2411;47.060;15.064;2023-06-22T06:41:26;22.40;23.30
4795;DHT22;2411;47.060;15.064;2023-06-22T06:43:53;22.60;24.10
4795;DHT22;2411;47.060;15.064;2023-06-22T06:46:21;22.80;25.90
4795;DHT22;2411;47.060;15.064;2023-06-22T06:48:48;22.90;24.10
4795;DHT22;2411;47.060;15.064;2023-06-22T06:51:15;23.00;24.60
4795;DHT22;2411;47.060;15.064;2023-06-22T06:53:43;23.00;24.30
4795;DHT22;2411;47.060;15.064;2023-06-22T06:56:10;23.20;25.00
4795;DHT22;2411;47.060;15.064;2023-06-22T06:58:41;23.10;24.10
4795;DHT22;2411;47.060;15.064;2023-06-22T07:01:09;23.10;24.60
4795;DHT22;2411;47.060;15.064;2023-06-22T07:03:36;23.30;24.50
4795;DHT22;2411;47.060;15.064;2023-06-22T07:06:04;23.40;24.50
4795;DHT22;2411;47.060;15.064;2023-06-22T07:08:31;23.50;24.50
4795;DHT22;2411;47.060;15.064;2023-06-22T07:10:58;23.70;25.10
4795;DHT22;2411;47.060;15.064;2023-06-22T07:13:28;23.90;26.70
4795;DHT22;2411;47.060;15.064;2023-06-22T07:15:55;24.00;25.30
4795;DHT22;2411;47.060;15.064;2023-06-22T07:18:23;24.10;24.90
4795;DHT22;2411;47.060;15.064;2023-06-22T07:20:51;24.20;24.50
4795;DHT22;2411;47.060;15.064;2023-06-22T07:23:18;24.20;24.30
4795;DHT22;2411;47.060;15.064;2023-06-22T07:25:45;24.30;23.70
4795;DHT22;2411;47.060;15.064;2023-06-22T07:28:13;24.20;20.50
4795;DHT22;2411;47.060;15.064;2023-06-22T07:30:40;24.40;20.90
4795;DHT22;2411;47.060;15.064;2023-06-22T07:33:07;24.50;21.20
4795;DHT22;2411;47.060;15.064;2023-06-22T07:35:36;24.60;21.50
4795;DHT22;2411;47.060;15.064;2023-06-22T07:38:03;24.60;21.40
4795;DHT22;2411;47.060;15.064;2023-06-22T07:40:32;24.80;22.20
4795;DHT22;2411;47.060;15.064;2023-06-22T07:43:01;24.80;22.10
4795;DHT22;2411;47.060;15.064;2023-06-22T07:45:29;25.00;22.00
4795;DHT22;2411;47.060;15.064;2023-06-22T07:47:56;25.20;22.60
4795;DHT22;2411;47.060;15.064;2023-06-22T07:50:23;25.30;24.00
4795;DHT22;2411;47.060;15.064;2023-06-22T07:52:51;25.40;23.30
4795;DHT22;2411;47.060;15.064;2023-06-22T07:55:19;25.50;23.60
4795;DHT22;2411;47.060;15.064;2023-06-22T07:57:48;25.40;21.70
4795;DHT22;2411;47.060;15.064;2023-06-22T08:00:16;25.50;21.90
4795;DHT22;2411;47.060;15.064;2023-06-22T08:02:46;25.60;22.40
4795;DHT22;2411;47.060;15.064;2023-06-22T08:05:14;25.80;23.20
4795;DHT22;2411;47.060;15.064;2023-06-22T08:07:45;25.90;21.90
4795;DHT22;2411;47.060;15.064;2023-06-22T08:10:15;25.90;22.70
4795;DHT22;2411;47.060;15.064;2023-06-22T08:12:42;26.10;23.20
4795;DHT22;2411;47.060;15.064;2023-06-22T08:15:10;26.00;23.50
4795;DHT22;2411;47.060;15.064;2023-06-22T08:17:38;26.20;23.50
4795;DHT22;2411;47.060;15.064;2023-06-22T08:20:07;25.90;21.60
4795;DHT22;2411;47.060;15.064;2023-06-22T08:22:42;25.90;21.60
4795;DHT22;2411;47.060;15.064;2023-06-22T08:25:10;26.20;23.30
4795;DHT22;2411;47.060;15.064;2023-06-22T08:27:37;26.30;23.80
4795;DHT22;2411;47.060;15.064;2023-06-22T08:30:06;26.30;23.40
4795;DHT22;2411;47.060;15.064;2023-06-22T08:32:33;26.50;23.90
4795;DHT22;2411;47.060;15.064;2023-06-22T08:35:01;26.50;23.40
4795;DHT22;2411;47.060;15.064;2023-06-22T08:37:28;26.70;23.00
4795;DHT22;2411;47.060;15.064;2023-06-22T08:40:04;26.60;22.10
4795;DHT22;2411;47.060;15.064;2023-06-22T08:42:36;26.70;22.20
4795;DHT22;2411;47.060;15.064;2023-06-22T08:45:04;26.70;21.50
4795;DHT22;2411;47.060;15.064;2023-06-22T08:47:32;26.60;20.70
4795;DHT22;2411;47.060;15.064;2023-06-22T08:49:59;26.70;22.30
4795;DHT22;2411;47.060;15.064;2023-06-22T08:52:29;26.90;22.80
4795;DHT22;2411;47.060;15.064;2023-06-22T08:54:57;27.10;24.00
4795;DHT22;2411;47.060;15.064;2023-06-22T08:57:26;27.30;23.30
4795;DHT22;2411;47.060;15.064;2023-06-22T08:59:53;27.50;24.30
4795;DHT22;2411;47.060;15.064;2023-06-22T09:02:26;27.30;21.80
4795;DHT22;2411;47.060;15.064;2023-06-22T09:04:57;27.40;22.80
4795;DHT22;2411;47.060;15.064;2023-06-22T09:07:25;27.40;23.50
4795;DHT22;2411;47.060;15.064;2023-06-22T09:09:53;27.60;24.60
4795;DHT22;2411;47.060;15.064;2023-06-22T09:12:21;27.60;23.60
4795;DHT22;2411;47.060;15.064;2023-06-22T09:14:53;27.50;23.90
4795;DHT22;2411;47.060;15.064;2023-06-22T09:17:21;27.70;23.90
4795;DHT22;2411;47.060;15.064;2023-06-22T09:19:49;27.60;23.60
4795;DHT22;2411;47.060;15.064;2023-06-22T09:22:16;27.50;23.50
4795;DHT22;2411;47.060;15.064;2023-06-22T09:24:44;27.60;23.70
4795;DHT22;2411;47.060;15.064;2023-06-22T09:27:11;27.70;23.50
4795;DHT22;2411;47.060;15.064;2023-06-22T09:29:38;27.50;21.40
4795;DHT22;2411;47.060;15.064;2023-06-22T09:32:06;27.30;20.90
4795;DHT22;2411;47.060;15.064;2023-06-22T09:34:34;27.40;21.40
4795;DHT22;2411;47.060;15.064;2023-06-22T09:37:01;27.50;21.80
4795;DHT22;2411;47.060;15.064;2023-06-22T09:39:29;27.60;22.20
4795;DHT22;2411;47.060;15.064;2023-06-22T09:41:59;27.80;23.60
4795;DHT22;2411;47.060;15.064;2023-06-22T09:44:27;27.80;22.70
4795;DHT22;2411;47.060;15.064;2023-06-22T09:46:54;27.90;23.30
4795;DHT22;2411;47.060;15.064;2023-06-22T09:49:22;28.00;25.00
4795;DHT22;2411;47.060;15.064;2023-06-22T09:52:09;28.20;25.20
4795;DHT22;2411;47.060;15.064;2023-06-22T09:54:38;28.00;23.40
4795;DHT22;2411;47.060;15.064;2023-06-22T09:57:05;28.00;22.80
4795;DHT22;2411;47.060;15.064;2023-06-22T09:59:33;28.00;23.70
4795;DHT22;2411;47.060;15.064;2023-06-22T10:02:00;28.20;24.40
4795;DHT22;2411;47.060;15.064;2023-06-22T10:04:28;28.40;25.50
4795;DHT22;2411;47.060;15.064;2023-06-22T10:06:56;28.60;26.50
4795;DHT22;2411;47.060;15.064;2023-06-22T10:09:23;28.60;26.20
4795;DHT22;2411;47.060;15.064;2023-06-22T10:11:51;28.90;26.70
4795;DHT22;2411;47.060;15.064;2023-06-22T10:14:18;29.00;27.10
4795;DHT22;2411;47.060;15.064;2023-06-22T10:16:45;28.70;24.40
4795;DHT22;2411;47.060;15.064;2023-06-22T10:19:13;28.90;26.90
4795;DHT22;2411;47.060;15.064;2023-06-22T10:21:40;28.80;24.90
4795;DHT22;2411;47.060;15.064;2023-06-22T10:24:07;29.00;26.30
4795;DHT22;2411;47.060;15.064;2023-06-22T10:26:36;29.10;26.80
4795;DHT22;2411;47.060;15.064;2023-06-22T10:29:03;28.90;25.60
4795;DHT22;2411;47.060;15.064;2023-06-22T10:31:42;28.70;24.40
4795;DHT22;2411;47.060;15.064;2023-06-22T10:34:09;29.00;25.40
4795;DHT22;2411;47.060;15.064;2023-06-22T10:36:38;29.10;25.50
4795;DHT22;2411;47.060;15.064;2023-06-22T10:39:05;29.10;25.50
4795;DHT22;2411;47.060;15.064;2023-06-22T10:41:32;29.30;26.60
4795;DHT22;2411;47.060;15.064;2023-06-22T10:44:00;29.30;25.80
4795;DHT22;2411;47.060;15.064;2023-06-22T10:46:27;29.20;24.10
4795;DHT22;2411;47.060;15.064;2023-06-22T10:48:54;29.40;26.80
4795;DHT22;2411;47.060;15.064;2023-06-22T10:51:24;29.50;25.50
4795;DHT22;2411;47.060;15.064;2023-06-22T10:53:52;29.60;26.40
4795;DHT22;2411;47.060;15.064;2023-06-22T10:56:19;29.80;27.30
4795;DHT22;2411;47.060;15.064;2023-06-22T10:58:47;30.00;28.80
4795;DHT22;2411;47.060;15.064;2023-06-22T11:01:14;30.00;28.30
4795;DHT22;2411;47.060;15.064;2023-06-22T11:04:00;29.90;27.20
4795;DHT22;2411;47.060;15.064;2023-06-22T11:06:28;29.80;26.30
4795;DHT22;2411;47.060;15.064;2023-06-22T11:08:55;29.70;25.10
4795;DHT22;2411;47.060;15.064;2023-06-22T11:11:38;29.70;25.40
4795;DHT22;2411;47.060;15.064;2023-06-22T11:14:05;29.70;25.00
4795;DHT22;2411;47.060;15.064;2023-06-22T11:16:32;29.70;24.10
4795;DHT22;2411;47.060;15.064;2023-06-22T11:19:02;30.00;26.00
4795;DHT22;2411;47.060;15.064;2023-06-22T11:21:30;30.10;26.50
4795;DHT22;2411;47.060;15.064;2023-06-22T11:23:59;30.20;26.50
4795;DHT22;2411;47.060;15.064;2023-06-22T11:26:26;29.80;23.20
4795;DHT22;2411;47.060;15.064;2023-06-22T11:28:57;29.70;23.30
4795;DHT22;2411;47.060;15.064;2023-06-22T11:31:25;30.20;26.10
4795;DHT22;2411;47.060;15.064;2023-06-22T11:33:53;30.40;27.10
4795;DHT22;2411;47.060;15.064;2023-06-22T11:36:20;30.80;28.90
4795;DHT22;2411;47.060;15.064;2023-06-22T11:38:47;30.80;28.60
4795;DHT22;2411;47.060;15.064;2023-06-22T11:41:15;30.80;29.30
4795;DHT22;2411;47.060;15.064;2023-06-22T11:43:42;30.70;28.90
4795;DHT22;2411;47.060;15.064;2023-06-22T11:46:10;30.70;27.50
4795;DHT22;2411;47.060;15.064;2023-06-22T11:48:37;30.50;27.60
4795;DHT22;2411;47.060;15.064;2023-06-22T11:51:05;30.50;26.50
4795;DHT22;2411;47.060;15.064;2023-06-22T11:53:34;30.80;28.60
4795;DHT22;2411;47.060;15.064;2023-06-22T11:56:01;30.60;25.70
4795;DHT22;2411;47.060;15.064;2023-06-22T11:58:29;30.70;27.00
4795;DHT22;2411;47.060;15.064;2023-06-22T12:00:56;31.20;29.70
4795;DHT22;2411;47.060;15.064;2023-06-22T12:03:24;31.20;30.30
4795;DHT22;2411;47.060;15.064;2023-06-22T12:05:51;31.30;29.70
4795;DHT22;2411;47.060;15.064;2023-06-22T12:08:22;31.40;29.90
4795;DHT22;2411;47.060;15.064;2023-06-22T12:10:50;31.20;28.60
4795;DHT22;2411;47.060;15.064;2023-06-22T12:13:17;31.30;28.80
4795;DHT22;2411;47.060;15.064;2023-06-22T12:15:45;31.10;28.80
4795;DHT22;2411;47.060;15.064;2023-06-22T12:18:12;31.40;30.20
4795;DHT22;2411;47.060;15.064;2023-06-22T12:20:42;31.60;31.10
4795;DHT22;2411;47.060;15.064;2023-06-22T12:23:09;31.80;32.00
4795;DHT22;2411;47.060;15.064;2023-06-22T12:25:37;31.80;32.90
4795;DHT22;2411;47.060;15.064;2023-06-22T12:28:04;31.60;30.30
4795;DHT22;2411;47.060;15.064;2023-06-22T12:30:33;31.60;29.70
4795;DHT22;2411;47.060;15.064;2023-06-22T12:33:00;31.70;31.10
4795;DHT22;2411;47.060;15.064;2023-06-22T12:35:28;31.90;32.20
4795;DHT22;2411;47.060;15.064;2023-06-22T12:37:55;32.00;32.10
4795;DHT22;2411;47.060;15.064;2023-06-22T12:40:22;31.60;29.00
4795;DHT22;2411;47.060;15.064;2023-06-22T12:42:50;31.70;29.80
4795;DHT22;2411;47.060;15.064;2023-06-22T12:45:17;32.10;33.30
4795;DHT22;2411;47.060;15.064;2023-06-22T12:47:45;32.20;32.60
4795;DHT22;2411;47.060;15.064;2023-06-22T12:50:13;32.00;29.80
4795;DHT22;2411;47.060;15.064;2023-06-22T12:52:40;32.00;31.20
4795;DHT22;2411;47.060;15.064;2023-06-22T12:55:08;32.00;30.70
4795;DHT22;2411;47.060;15.064;2023-06-22T12:57:35;32.20;31.20
4795;DHT22;2411;47.060;15.064;2023-06-22T13:00:03;31.80;28.80
4795;DHT22;2411;47.060;15.064;2023-06-22T13:02:32;31.90;30.10
4795;DHT22;2411;47.060;15.064;2023-06-22T13:05:00;32.30;32.10
4795;DHT22;2411;47.060;15.064;2023-06-22T13:07:27;32.10;30.10
4795;DHT22;2411;47.060;15.064;2023-06-22T13:09:54;32.10;30.00
4795;DHT22;2411;47.060;15.064;2023-06-22T13:12:22;31.60;27.40
4795;DHT22;2411;47.060;15.064;2023-06-22T13:14:49;31.90;28.80
4795;DHT22;2411;47.060;15.064;2023-06-22T13:17:17;32.20;30.20
4795;DHT22;2411;47.060;15.064;2023-06-22T13:19:44;32.00;28.50
4795;DHT22;2411;47.060;15.064;2023-06-22T13:22:34;31.80;28.10
4795;DHT22;2411;47.060;15.064;2023-06-22T13:25:10;31.80;27.70
4795;DHT22;2411;47.060;15.064;2023-06-22T13:27:52;31.80;27.60
4795;DHT22;2411;47.060;15.064;2023-06-22T13:30:20;32.00;30.00
4795;DHT22;2411;47.060;15.064;2023-06-22T13:32:47;32.00;28.80
4795;DHT22;2411;47.060;15.064;2023-06-22T13:35:15;31.90;28.30
4795;DHT22;2411;47.060;15.064;2023-06-22T13:37:42;32.00;28.70
4795;DHT22;2411;47.060;15.064;2023-06-22T13:40:09;31.60;25.80
4795;DHT22;2411;47.060;15.064;2023-06-22T13:42:37;31.40;25.90
4795;DHT22;2411;47.060;15.064;2023-06-22T13:45:05;31.80;28.20
4795;DHT22;2411;47.060;15.064;2023-06-22T13:47:33;31.60;26.00
4795;DHT22;2411;47.060;15.064;2023-06-22T13:50:01;31.50;25.20
4795;DHT22;2411;47.060;15.064;2023-06-22T13:52:28;31.80;27.70
4795;DHT22;2411;47.060;15.064;2023-06-22T13:54:55;31.70;26.70
4795;DHT22;2411;47.060;15.064;2023-06-22T13:57:23;31.90;28.80
4795;DHT22;2411;47.060;15.064;2023-06-22T13:59:50;31.90;28.70
4795;DHT22;2411;47.060;15.064;2023-06-22T14:02:17;31.80;27.70
4795;DHT22;2411;47.060;15.064;2023-06-22T14:04:47;31.90;27.10
4795;DHT22;2411;47.060;15.064;2023-06-22T14:07:17;31.80;27.80
4795;DHT22;2411;47.060;15.064;2023-06-22T14:09:46;32.00;27.50
4795;DHT22;2411;47.060;15.064;2023-06-22T14:12:14;32.20;28.40
4795;DHT22;2411;47.060;15.064;2023-06-22T14:14:41;32.30;29.00
4795;DHT22;2411;47.060;15.064;2023-06-22T14:17:08;32.20;27.60
4795;DHT22;2411;47.060;15.064;2023-06-22T14:19:36;32.30;28.70
4795;DHT22;2411;47.060;15.064;2023-06-22T14:22:03;32.20;26.70
4795;DHT22;2411;47.060;15.064;2023-06-22T14:24:31;32.20;27.00
4795;DHT22;2411;47.060;15.064;2023-06-22T14:26:58;31.90;23.90
4795;DHT22;2411;47.060;15.064;2023-06-22T14:29:29;32.00;24.50
4795;DHT22;2411;47.060;15.064;2023-06-22T14:31:56;32.00;25.10
4795;DHT22;2411;47.060;15.064;2023-06-22T14:34:24;32.10;26.20
4795;DHT22;2411;47.060;15.064;2023-06-22T14:36:51;32.00;24.40
4795;DHT22;2411;47.060;15.064;2023-06-22T14:39:18;32.10;25.00
4795;DHT22;2411;47.060;15.064;2023-06-22T14:41:47;32.00;25.10
4795;DHT22;2411;47.060;15.064;2023-06-22T14:44:15;32.10;24.50
4795;DHT22;2411;47.060;15.064;2023-06-22T14:46:42;32.00;23.80
4795;DHT22;2411;47.060;15.064;2023-06-22T14:49:09;32.00;23.70
4795;DHT22;2411;47.060;15.064;2023-06-22T14:51:37;32.00;24.60
4795;DHT22;2411;47.060;15.064;2023-06-22T14:54:04;32.10;25.60
4795;DHT22;2411;47.060;15.064;2023-06-22T14:56:31;31.90;23.90
4795;DHT22;2411;47.060;15.064;2023-06-22T14:59:01;32.10;26.00
4795;DHT22;2411;47.060;15.064;2023-06-22T15:01:28;32.10;24.90
4795;DHT22;2411;47.060;15.064;2023-06-22T15:03:55;32.20;26.00
4795;DHT22;2411;47.060;15.064;2023-06-22T15:06:22;32.10;26.20
4795;DHT22;2411;47.060;15.064;2023-06-22T15:08:50;32.00;26.50
4795;DHT22;2411;47.060;15.064;2023-06-22T15:11:17;31.70;24.30
4795;DHT22;2411;47.060;15.064;2023-06-22T15:13:45;31.40;22.60
4795;DHT22;2411;47.060;15.064;2023-06-22T15:16:12;31.30;22.80
4795;DHT22;2411;47.060;15.064;2023-06-22T15:18:40;31.20;21.50
4795;DHT22;2411;47.060;15.064;2023-06-22T15:21:10;31.10;21.30
4795;DHT22;2411;47.060;15.064;2023-06-22T15:23:38;30.80;19.00
4795;DHT22;2411;47.060;15.064;2023-06-22T15:26:05;30.70;19.50
4795;DHT22;2411;47.060;15.064;2023-06-22T15:28:33;30.60;19.30
4795;DHT22;2411;47.060;15.064;2023-06-22T15:31:02;30.70;20.70
4795;DHT22;2411;47.060;15.064;2023-06-22T15:33:29;31.00;21.70
4795;DHT22;2411;47.060;15.064;2023-06-22T15:35:59;31.10;22.70
4795;DHT22;2411;47.060;15.064;2023-06-22T15:38:32;31.20;23.80
4795;DHT22;2411;47.060;15.064;2023-06-22T15:41:00;31.10;22.40
4795;DHT22;2411;47.060;15.064;2023-06-22T15:43:27;31.20;23.00
4795;DHT22;2411;47.060;15.064;2023-06-22T15:45:55;31.30;26.00
4795;DHT22;2411;47.060;15.064;2023-06-22T15:48:22;31.20;23.90
4795;DHT22;2411;47.060;15.064;2023-06-22T15:50:49;31.30;24.70
4795;DHT22;2411;47.060;15.064;2023-06-22T15:53:17;31.50;26.00
4795;DHT22;2411;47.060;15.064;2023-06-22T15:55:44;31.50;25.70
4795;DHT22;2411;47.060;15.064;2023-06-22T15:58:14;31.80;27.60